Time,TemperatureF,DewpointF,PressureIn,WindDirection,WindDirectionDegrees,WindSpeedMPH,WindSpeedGustMPH,Humidity,HourlyPrecipIn,Conditions,Clouds,dailyrainin,SoftwareType,DateUTC
2013-06-01 00:02:00,60.6,50.0,29.80,SSW,202,4.0,12.0,68,0.00,,,0.00,Weather View 32 v70,2013-06-01 05:02:00,
2013-06-01 00:07:00,60.6,50.0,29.80,SSW,202,11.0,12.0,68,0.00,,,0.00,Weather View 32 v70,2013-06-01 05:07:00,
2013-06-01 00:12:00,60.6,50.3,29.80,WSW,247,9.0,14.0,69,0.00,,,0.00,Weather View 32 v70,2013-06-01 05:12:00,
2013-06-01 00:17:00,60.4,50.9,29.80,WSW,247,4.0,14.0,71,0.00,,,0.00,Weather View 32 v70,2013-06-01 05:17:00,
2013-06-01 00:22:00,60.1,51.0,29.80,SW,225,2.0,14.0,72,0.00,,,0.00,Weather View 32 v70,2013-06-01 05:22:00,
2013-06-01 00:27:00,59.9,51.2,29.80,SW,225,3.0,14.0,73,0.00,,,0.00,Weather View 32 v70,2013-06-01 05:27:00,
2013-06-01 00:32:00,59.8,51.5,29.80,WSW,247,4.0,14.0,74,0.00,,,0.00,Weather View 32 v70,2013-06-01 05:32:00,
2013-06-01 00:37:00,59.7,51.4,29.80,West,270,7.0,14.0,74,0.00,,,0.00,Weather View 32 v70,2013-06-01 05:37:00,
2013-06-01 00:42:00,59.4,51.8,29.80,WNW,292,5.0,17.0,76,0.00,,,0.00,Weather View 32 v70,2013-06-01 05:42:00,
2013-06-01 00:47:00,59.0,51.8,29.80,WSW,247,11.0,17.0,77,0.00,,,0.00,Weather View 32 v70,2013-06-01 05:47:00,
2013-06-01 00:52:00,58.9,52.0,29.80,West,270,6.0,17.0,78,0.00,,,0.00,Weather View 32 v70,2013-06-01 05:52:00,
2013-06-01 00:57:00,58.7,51.8,29.80,West,270,7.0,17.0,78,0.00,,,0.00,Weather View 32 v70,2013-06-01 05:57:00,
2013-06-01 01:02:00,58.7,51.8,29.80,West,270,6.0,17.0,78,0.00,,,0.00,Weather View 32 v70,2013-06-01 06:02:00,
2013-06-01 01:07:00,58.6,52.1,29.80,WNW,292,3.0,17.0,79,0.00,,,0.00,Weather View 32 v70,2013-06-01 06:07:00,
2013-06-01 01:12:00,58.6,51.7,29.80,WNW,292,4.0,17.0,78,0.00,,,0.00,Weather View 32 v70,2013-06-01 06:12:00,
2013-06-01 01:17:00,58.6,51.7,29.80,WSW,247,4.0,17.0,78,0.00,,,0.00,Weather View 32 v70,2013-06-01 06:17:00,
2013-06-01 01:22:00,58.4,52.9,29.81,West,270,6.0,17.0,82,0.00,,,0.00,Weather View 32 v70,2013-06-01 06:22:00,
2013-06-01 01:27:00,57.8,53.3,29.81,SW,225,9.0,17.0,85,0.00,,,0.00,Weather View 32 v70,2013-06-01 06:27:00,
2013-06-01 01:32:00,57.4,53.6,29.80,West,270,6.0,17.0,87,0.00,,,0.00,Weather View 32 v70,2013-06-01 06:32:00,
2013-06-01 01:37:00,57.2,53.4,29.80,West,270,2.0,17.0,87,0.00,,,0.00,Weather View 32 v70,2013-06-01 06:37:00,
2013-06-01 01:42:00,57.2,53.4,29.80,West,270,7.0,15.0,87,0.00,,,0.00,Weather View 32 v70,2013-06-01 06:42:00,
2013-06-01 01:47:00,57.3,53.5,29.80,West,270,4.0,15.0,87,0.00,,,0.00,Weather View 32 v70,2013-06-01 06:47:00,
2013-06-01 01:52:00,57.3,53.5,29.80,SW,225,4.0,15.0,87,0.00,,,0.00,Weather View 32 v70,2013-06-01 06:52:00,
2013-06-01 01:57:00,57.3,53.5,29.80,SW,225,1.0,15.0,87,0.00,,,0.00,Weather View 32 v70,2013-06-01 06:57:00,
2013-06-01 02:02:00,57.4,53.6,29.80,SSW,202,2.0,15.0,87,0.00,,,0.00,Weather View 32 v70,2013-06-01 07:02:00,
2013-06-01 02:07:00,57.5,53.3,29.80,SW,225,6.0,15.0,86,0.00,,,0.00,Weather View 32 v70,2013-06-01 07:07:00,
2013-06-01 02:12:00,57.7,53.5,29.79,SW,225,6.0,16.0,86,0.00,,,0.00,Weather View 32 v70,2013-06-01 07:12:00,
2013-06-01 02:17:00,57.8,53.3,29.79,SW,225,5.0,16.0,85,0.00,,,0.00,Weather View 32 v70,2013-06-01 07:17:00,
2013-06-01 02:22:00,57.8,53.6,29.79,SW,225,6.0,16.0,86,0.00,,,0.00,Weather View 32 v70,2013-06-01 07:22:00,
2013-06-01 02:27:00,57.6,53.7,29.79,SSW,202,1.0,16.0,87,0.00,,,0.00,Weather View 32 v70,2013-06-01 07:27:00,
2013-06-01 02:33:00,57.2,54.3,29.79,WSW,247,7.0,16.0,90,0.00,,,0.00,Weather View 32 v70,2013-06-01 07:33:00,
2013-06-01 02:38:00,56.5,54.5,29.79,SW,225,6.0,16.0,93,0.00,,,0.00,Weather View 32 v70,2013-06-01 07:38:00,
2013-06-01 02:43:00,55.9,54.5,29.78,SSW,202,5.0,16.0,95,0.02,,,0.02,Weather View 32 v70,2013-06-01 07:43:00,
2013-06-01 02:48:00,55.7,54.9,29.78,SSW,202,8.0,16.0,97,0.02,,,0.02,Weather View 32 v70,2013-06-01 07:48:00,
2013-06-01 02:53:00,55.4,54.6,29.78,WSW,247,5.0,16.0,97,0.02,,,0.02,Weather View 32 v70,2013-06-01 07:53:00,
2013-06-01 02:58:00,55.5,54.7,29.78,South,180,2.0,16.0,97,0.02,,,0.02,Weather View 32 v70,2013-06-01 07:58:00,
2013-06-01 03:03:00,55.5,54.7,29.78,SW,225,1.0,16.0,97,0.02,,,0.02,Weather View 32 v70,2013-06-01 08:03:00,
2013-06-01 03:08:00,55.5,54.7,29.78,SW,225,1.0,16.0,97,0.02,,,0.02,Weather View 32 v70,2013-06-01 08:08:00,
2013-06-01 03:13:00,55.5,54.7,29.78,SW,225,2.0,14.0,97,0.02,,,0.02,Weather View 32 v70,2013-06-01 08:13:00,
2013-06-01 03:18:00,55.6,54.8,29.78,SSW,202,4.0,14.0,97,0.02,,,0.02,Weather View 32 v70,2013-06-01 08:18:00,
2013-06-01 03:23:00,55.7,54.9,29.78,SSW,202,2.0,12.0,97,0.02,,,0.02,Weather View 32 v70,2013-06-01 08:23:00,
2013-06-01 03:28:00,55.8,55.0,29.77,SSW,202,1.0,12.0,97,0.02,,,0.02,Weather View 32 v70,2013-06-01 08:28:00,
2013-06-01 03:33:00,55.9,55.1,29.77,SSW,202,3.0,11.0,97,0.02,,,0.02,Weather View 32 v70,2013-06-01 08:33:00,
2013-06-01 03:38:00,55.9,55.1,29.77,WSW,247,4.0,8.0,97,0.02,,,0.02,Weather View 32 v70,2013-06-01 08:38:00,
2013-06-01 03:43:00,56.2,55.1,29.77,SW,225,3.0,8.0,96,0.00,,,0.02,Weather View 32 v70,2013-06-01 08:43:00,
2013-06-01 03:48:00,56.4,55.3,29.77,SW,225,1.0,8.0,96,0.00,,,0.02,Weather View 32 v70,2013-06-01 08:48:00,
2013-06-01 03:53:00,56.5,55.4,29.77,West,270,3.0,7.0,96,0.00,,,0.02,Weather View 32 v70,2013-06-01 08:53:00,
2013-06-01 03:58:00,56.6,55.2,29.77,NW,315,1.0,8.0,95,0.00,,,0.02,Weather View 32 v70,2013-06-01 08:58:00,
2013-06-01 04:03:00,56.7,55.3,29.77,WNW,292,4.0,10.0,95,0.00,,,0.02,Weather View 32 v70,2013-06-01 09:03:00,
2013-06-01 04:08:00,56.8,55.4,29.77,West,270,8.0,10.0,95,0.00,,,0.02,Weather View 32 v70,2013-06-01 09:08:00,
2013-06-01 04:13:00,56.9,55.2,29.77,West,270,4.0,11.0,94,0.00,,,0.02,Weather View 32 v70,2013-06-01 09:13:00,
2013-06-01 04:18:00,56.9,55.2,29.77,West,270,6.0,11.0,94,0.00,,,0.02,Weather View 32 v70,2013-06-01 09:18:00,
2013-06-01 04:23:00,56.9,55.2,29.77,WSW,247,7.0,11.0,94,0.00,,,0.02,Weather View 32 v70,2013-06-01 09:23:00,
2013-06-01 04:28:00,57.0,55.0,29.77,WNW,292,6.0,12.0,93,0.00,,,0.02,Weather View 32 v70,2013-06-01 09:28:00,
2013-06-01 04:33:00,57.1,55.1,29.78,West,270,5.0,12.0,93,0.00,,,0.02,Weather View 32 v70,2013-06-01 09:33:00,
2013-06-01 04:38:00,57.1,55.1,29.78,WSW,247,6.0,12.0,93,0.00,,,0.02,Weather View 32 v70,2013-06-01 09:38:00,
2013-06-01 04:43:00,56.9,54.9,29.78,West,270,5.0,12.0,93,0.00,,,0.02,Weather View 32 v70,2013-06-01 09:43:00,
2013-06-01 04:48:00,56.8,55.1,29.78,WSW,247,5.0,12.0,94,0.00,,,0.02,Weather View 32 v70,2013-06-01 09:48:00,
2013-06-01 04:53:00,56.7,55.3,29.78,WNW,292,3.0,16.0,95,0.00,,,0.02,Weather View 32 v70,2013-06-01 09:53:00,
2013-06-01 04:58:00,56.7,55.0,29.78,West,270,2.0,16.0,94,0.00,,,0.02,Weather View 32 v70,2013-06-01 09:58:00,
2013-06-01 05:03:00,56.9,54.9,29.78,West,270,7.0,16.0,93,0.00,,,0.02,Weather View 32 v70,2013-06-01 10:03:00,
2013-06-01 05:08:00,56.9,54.9,29.78,West,270,4.0,16.0,93,0.00,,,0.02,Weather View 32 v70,2013-06-01 10:08:00,
2013-06-01 05:13:00,57.1,55.1,29.78,WSW,247,5.0,16.0,93,0.00,,,0.02,Weather View 32 v70,2013-06-01 10:13:00,
2013-06-01 05:19:00,57.2,55.2,29.78,West,270,7.0,16.0,93,0.00,,,0.02,Weather View 32 v70,2013-06-01 10:19:00,
2013-06-01 05:24:00,57.3,55.0,29.78,West,270,6.0,16.0,92,0.00,,,0.02,Weather View 32 v70,2013-06-01 10:24:00,
2013-06-01 05:29:00,57.3,55.3,29.78,West,270,6.0,16.0,93,0.00,,,0.02,Weather View 32 v70,2013-06-01 10:29:00,
2013-06-01 05:34:00,57.3,55.0,29.78,WNW,292,9.0,16.0,92,0.00,,,0.02,Weather View 32 v70,2013-06-01 10:34:00,
2013-06-01 05:39:00,57.3,55.3,29.78,West,270,9.0,16.0,93,0.00,,,0.02,Weather View 32 v70,2013-06-01 10:39:00,
2013-06-01 05:44:00,57.3,55.3,29.78,West,270,6.0,16.0,93,0.01,,,0.03,Weather View 32 v70,2013-06-01 10:44:00,
2013-06-01 05:49:00,57.4,55.4,29.78,WSW,247,11.0,16.0,93,0.01,,,0.03,Weather View 32 v70,2013-06-01 10:49:00,
2013-06-01 05:54:00,57.3,55.9,29.79,WNW,292,3.0,14.0,95,0.01,,,0.03,Weather View 32 v70,2013-06-01 10:54:00,
2013-06-01 05:59:00,57.2,55.8,29.79,West,270,8.0,14.0,95,0.01,,,0.03,Weather View 32 v70,2013-06-01 10:59:00,
2013-06-01 06:04:00,57.1,55.7,29.79,WSW,247,4.0,14.0,95,0.01,,,0.03,Weather View 32 v70,2013-06-01 11:04:00,
2013-06-01 06:09:00,57.2,56.1,29.78,WNW,292,11.0,14.0,96,0.01,,,0.03,Weather View 32 v70,2013-06-01 11:09:00,
2013-06-01 06:14:00,57.2,56.1,29.79,WNW,292,7.0,14.0,96,0.01,,,0.03,Weather View 32 v70,2013-06-01 11:14:00,
2013-06-01 06:19:00,57.1,56.0,29.79,WNW,292,4.0,14.0,96,0.01,,,0.03,Weather View 32 v70,2013-06-01 11:19:00,
2013-06-01 06:24:00,57.3,56.2,29.79,West,270,8.0,14.0,96,0.01,,,0.03,Weather View 32 v70,2013-06-01 11:24:00,
2013-06-01 06:29:00,57.4,56.3,29.80,WNW,292,8.0,14.0,96,0.01,,,0.03,Weather View 32 v70,2013-06-01 11:29:00,
2013-06-01 06:34:00,57.5,56.4,29.79,WSW,247,4.0,17.0,96,0.01,,,0.03,Weather View 32 v70,2013-06-01 11:34:00,
2013-06-01 06:39:00,57.4,56.6,29.80,West,270,11.0,18.0,97,0.01,,,0.03,Weather View 32 v70,2013-06-01 11:39:00,
2013-06-01 06:44:00,57.3,55.6,29.80,WNW,292,11.0,19.0,94,0.00,,,0.03,Weather View 32 v70,2013-06-01 11:44:00,
2013-06-01 06:49:00,57.4,55.4,29.80,WNW,292,19.0,19.0,93,0.00,,,0.03,Weather View 32 v70,2013-06-01 11:49:00,
2013-06-01 06:54:00,57.2,54.9,29.80,NW,315,14.0,24.0,92,0.00,,,0.03,Weather View 32 v70,2013-06-01 11:54:00,
2013-06-01 06:59:00,57.0,55.0,29.81,West,270,9.0,24.0,93,0.00,,,0.03,Weather View 32 v70,2013-06-01 11:59:00,
2013-06-01 07:04:00,56.8,55.4,29.82,West,270,9.0,24.0,95,0.00,,,0.03,Weather View 32 v70,2013-06-01 12:04:00,
2013-06-01 07:09:00,56.7,55.6,29.81,West,270,9.0,24.0,96,0.00,,,0.03,Weather View 32 v70,2013-06-01 12:09:00,
2013-06-01 07:14:00,56.7,55.3,29.81,West,270,8.0,24.0,95,0.00,,,0.03,Weather View 32 v70,2013-06-01 12:14:00,
2013-06-01 07:19:00,56.7,55.0,29.81,West,270,12.0,24.0,94,0.00,,,0.03,Weather View 32 v70,2013-06-01 12:19:00,
2013-06-01 07:24:00,56.6,54.6,29.82,WNW,292,12.0,24.0,93,0.00,,,0.03,Weather View 32 v70,2013-06-01 12:24:00,
2013-06-01 07:29:00,56.4,54.4,29.82,WNW,292,14.0,24.0,93,0.00,,,0.03,Weather View 32 v70,2013-06-01 12:29:00,
2013-06-01 07:34:00,56.3,54.3,29.82,West,270,12.0,25.0,93,0.00,,,0.03,Weather View 32 v70,2013-06-01 12:34:00,
2013-06-01 07:39:00,56.2,54.5,29.82,WNW,292,12.0,25.0,94,0.00,,,0.03,Weather View 32 v70,2013-06-01 12:39:00,
2013-06-01 07:44:00,56.1,54.4,29.82,West,270,7.0,25.0,94,0.00,,,0.03,Weather View 32 v70,2013-06-01 12:44:00,
2013-06-01 07:49:00,55.9,54.5,29.83,West,270,6.0,25.0,95,0.00,,,0.03,Weather View 32 v70,2013-06-01 12:49:00,
2013-06-01 07:54:00,55.7,54.3,29.83,West,270,14.0,25.0,95,0.00,,,0.03,Weather View 32 v70,2013-06-01 12:54:00,
2013-06-01 07:59:00,55.5,54.4,29.83,WNW,292,9.0,25.0,96,0.00,,,0.03,Weather View 32 v70,2013-06-01 12:59:00,
2013-06-01 08:04:00,55.5,54.7,29.84,WNW,292,9.0,25.0,97,0.00,,,0.03,Weather View 32 v70,2013-06-01 13:04:00,
2013-06-01 08:09:00,55.3,54.5,29.83,West,270,11.0,25.0,97,0.00,,,0.03,Weather View 32 v70,2013-06-01 13:09:00,
2013-06-01 08:14:00,55.2,54.4,29.84,West,270,9.0,25.0,97,0.00,,,0.03,Weather View 32 v70,2013-06-01 13:14:00,
2013-06-01 08:19:00,55.1,54.3,29.84,West,270,9.0,25.0,97,0.00,,,0.03,Weather View 32 v70,2013-06-01 13:19:00,
2013-06-01 08:24:00,55.0,54.2,29.84,NW,315,15.0,25.0,97,0.00,,,0.03,Weather View 32 v70,2013-06-01 13:24:00,
2013-06-01 08:29:00,54.9,54.1,29.84,West,270,8.0,25.0,97,0.00,,,0.03,Weather View 32 v70,2013-06-01 13:29:00,
2013-06-01 08:34:00,54.7,53.9,29.85,West,270,7.0,21.0,97,0.00,,,0.03,Weather View 32 v70,2013-06-01 13:34:00,
2013-06-01 08:39:00,54.6,53.8,29.85,West,270,12.0,19.0,97,0.00,,,0.03,Weather View 32 v70,2013-06-01 13:39:00,
2013-06-01 08:44:00,54.5,53.7,29.85,WNW,292,12.0,19.0,97,0.00,,,0.03,Weather View 32 v70,2013-06-01 13:44:00,
2013-06-01 08:49:00,54.5,53.7,29.85,South,180,3.0,19.0,97,0.00,,,0.03,Weather View 32 v70,2013-06-01 13:49:00,
2013-06-01 08:54:00,54.4,53.6,29.85,WNW,292,11.0,22.0,97,0.00,,,0.03,Weather View 32 v70,2013-06-01 13:54:00,
2013-06-01 08:59:00,54.6,53.8,29.86,West,270,9.0,22.0,97,0.00,,,0.03,Weather View 32 v70,2013-06-01 13:59:00,
2013-06-01 09:04:00,54.7,53.9,29.86,West,270,10.0,22.0,97,0.00,,,0.03,Weather View 32 v70,2013-06-01 14:04:00,
2013-06-01 09:09:00,54.7,53.9,29.86,West,270,5.0,22.0,97,0.00,,,0.03,Weather View 32 v70,2013-06-01 14:09:00,
2013-06-01 09:14:00,54.8,54.0,29.86,West,270,10.0,22.0,97,0.00,,,0.03,Weather View 32 v70,2013-06-01 14:14:00,
2013-06-01 09:19:00,54.7,53.9,29.86,West,270,11.0,22.0,97,0.00,,,0.03,Weather View 32 v70,2013-06-01 14:19:00,
2013-06-01 09:24:00,54.7,53.9,29.86,WNW,292,14.0,23.0,97,0.00,,,0.03,Weather View 32 v70,2013-06-01 14:24:00,
2013-06-01 09:29:00,54.8,54.0,29.87,WNW,292,12.0,23.0,97,0.00,,,0.03,Weather View 32 v70,2013-06-01 14:29:00,
2013-06-01 09:34:00,54.9,54.1,29.86,West,270,10.0,23.0,97,0.00,,,0.03,Weather View 32 v70,2013-06-01 14:34:00,
2013-06-01 09:39:00,54.9,54.1,29.87,West,270,11.0,23.0,97,0.00,,,0.03,Weather View 32 v70,2013-06-01 14:39:00,
2013-06-01 09:44:00,54.9,54.1,29.87,WNW,292,12.0,23.0,97,0.00,,,0.03,Weather View 32 v70,2013-06-01 14:44:00,
2013-06-01 09:49:00,54.9,54.1,29.87,WNW,292,9.0,23.0,97,0.00,,,0.03,Weather View 32 v70,2013-06-01 14:49:00,
2013-06-01 09:54:00,55.0,54.2,29.88,WNW,292,12.0,23.0,97,0.00,,,0.03,Weather View 32 v70,2013-06-01 14:54:00,
2013-06-01 09:59:00,55.1,54.3,29.88,West,270,9.0,23.0,97,0.00,,,0.03,Weather View 32 v70,2013-06-01 14:59:00,
2013-06-01 10:04:00,55.0,54.2,29.87,NW,315,14.0,24.0,97,0.00,,,0.03,Weather View 32 v70,2013-06-01 15:04:00,
2013-06-01 10:09:00,54.9,54.1,29.88,West,270,13.0,24.0,97,0.01,,,0.04,Weather View 32 v70,2013-06-01 15:09:00,
2013-06-01 10:14:00,54.9,54.1,29.88,WNW,292,16.0,24.0,97,0.01,,,0.04,Weather View 32 v70,2013-06-01 15:14:00,
2013-06-01 10:19:00,54.8,54.0,29.88,WNW,292,6.0,24.0,97,0.01,,,0.04,Weather View 32 v70,2013-06-01 15:19:00,
2013-06-01 10:24:00,54.7,53.9,29.88,West,270,5.0,24.0,97,0.02,,,0.05,Weather View 32 v70,2013-06-01 15:24:00,
2013-06-01 10:29:00,54.7,53.9,29.89,SW,225,10.0,24.0,97,0.02,,,0.05,Weather View 32 v70,2013-06-01 15:29:00,
2013-06-01 10:34:00,54.7,53.9,29.89,West,270,9.0,28.0,97,0.02,,,0.05,Weather View 32 v70,2013-06-01 15:34:00,
2013-06-01 10:39:00,54.6,53.8,29.89,West,270,16.0,28.0,97,0.02,,,0.05,Weather View 32 v70,2013-06-01 15:39:00,
2013-06-01 10:44:00,54.9,54.1,29.89,West,270,11.0,28.0,97,0.02,,,0.05,Weather View 32 v70,2013-06-01 15:44:00,
2013-06-01 10:49:00,54.8,54.0,29.90,West,270,21.0,28.0,97,0.02,,,0.05,Weather View 32 v70,2013-06-01 15:49:00,
2013-06-01 10:54:00,54.9,54.1,29.90,West,270,12.0,28.0,97,0.02,,,0.05,Weather View 32 v70,2013-06-01 15:54:00,
2013-06-01 11:00:00,54.7,53.9,29.90,WNW,292,12.0,28.0,97,0.02,,,0.05,Weather View 32 v70,2013-06-01 16:00:00,
2013-06-01 11:05:00,54.7,53.9,29.91,West,270,11.0,28.0,97,0.03,,,0.06,Weather View 32 v70,2013-06-01 16:05:00,
2013-06-01 11:10:00,54.5,53.7,29.91,WNW,292,16.0,28.0,97,0.03,,,0.07,Weather View 32 v70,2013-06-01 16:10:00,
2013-06-01 11:15:00,54.3,53.5,29.92,WNW,292,10.0,28.0,97,0.03,,,0.07,Weather View 32 v70,2013-06-01 16:15:00,
2013-06-01 11:20:00,54.3,53.5,29.92,WSW,247,8.0,33.0,97,0.04,,,0.08,Weather View 32 v70,2013-06-01 16:20:00,
2013-06-01 11:25:00,54.3,53.5,29.91,NW,315,26.0,33.0,97,0.03,,,0.08,Weather View 32 v70,2013-06-01 16:25:00,
2013-06-01 11:30:00,54.5,53.7,29.92,West,270,7.0,33.0,97,0.03,,,0.08,Weather View 32 v70,2013-06-01 16:30:00,
2013-06-01 11:35:00,54.5,53.7,29.93,West,270,12.0,33.0,97,0.03,,,0.08,Weather View 32 v70,2013-06-01 16:35:00,
2013-06-01 11:40:00,54.5,53.7,29.94,West,270,13.0,33.0,97,0.03,,,0.08,Weather View 32 v70,2013-06-01 16:40:00,
2013-06-01 11:45:00,54.3,53.5,29.93,West,270,14.0,33.0,97,0.03,,,0.08,Weather View 32 v70,2013-06-01 16:45:00,
2013-06-01 11:50:00,54.4,53.6,29.94,NW,315,23.0,33.0,97,0.03,,,0.08,Weather View 32 v70,2013-06-01 16:50:00,
2013-06-01 11:55:00,54.6,53.8,29.94,NW,315,19.0,33.0,97,0.03,,,0.08,Weather View 32 v70,2013-06-01 16:55:00,
2013-06-01 12:00:00,54.7,53.3,29.94,West,270,16.0,33.0,95,0.03,,,0.08,Weather View 32 v70,2013-06-01 17:00:00,
2013-06-01 12:05:00,54.9,53.5,29.94,West,270,11.0,33.0,95,0.02,,,0.08,Weather View 32 v70,2013-06-01 17:05:00,
2013-06-01 12:10:00,54.7,53.3,29.95,West,270,17.0,33.0,95,0.01,,,0.08,Weather View 32 v70,2013-06-01 17:10:00,
2013-06-01 12:15:00,54.7,53.3,29.96,NW,315,20.0,33.0,95,0.01,,,0.08,Weather View 32 v70,2013-06-01 17:15:00,
2013-06-01 12:20:00,54.7,53.0,29.96,NW,315,18.0,32.0,94,0.00,,,0.08,Weather View 32 v70,2013-06-01 17:20:00,
2013-06-01 12:25:00,55.1,53.7,29.96,WNW,292,9.0,32.0,95,0.00,,,0.08,Weather View 32 v70,2013-06-01 17:25:00,
2013-06-01 12:30:00,55.1,52.8,29.96,West,270,12.0,32.0,92,0.00,,,0.08,Weather View 32 v70,2013-06-01 17:30:00,
2013-06-01 12:35:00,55.4,53.1,29.96,NW,315,20.0,32.0,92,0.00,,,0.08,Weather View 32 v70,2013-06-01 17:35:00,
2013-06-01 12:40:00,55.6,53.3,29.97,West,270,19.0,32.0,92,0.00,,,0.08,Weather View 32 v70,2013-06-01 17:40:00,
2013-06-01 12:45:00,55.4,52.8,29.98,WNW,292,17.0,32.0,91,0.00,,,0.08,Weather View 32 v70,2013-06-01 17:45:00,
2013-06-01 12:50:00,55.6,53.0,29.98,WNW,292,11.0,34.0,91,0.00,,,0.08,Weather View 32 v70,2013-06-01 17:50:00,
2013-06-01 12:55:00,55.5,52.9,29.98,West,270,14.0,34.0,91,0.00,,,0.08,Weather View 32 v70,2013-06-01 17:55:00,
2013-06-01 13:00:00,55.5,52.9,29.98,WNW,292,16.0,34.0,91,0.00,,,0.08,Weather View 32 v70,2013-06-01 18:00:00,
2013-06-01 13:05:00,55.9,53.3,29.98,NW,315,26.0,34.0,91,0.00,,,0.08,Weather View 32 v70,2013-06-01 18:05:00,
2013-06-01 13:10:00,55.8,52.9,29.96,NW,315,19.0,36.0,90,0.00,,,0.08,Weather View 32 v70,2013-06-01 18:10:00,
2013-06-01 13:15:00,55.9,53.0,29.98,NW,315,15.0,36.0,90,0.00,,,0.08,Weather View 32 v70,2013-06-01 18:15:00,
2013-06-01 13:20:00,55.8,52.9,29.99,NW,315,19.0,36.0,90,0.00,,,0.08,Weather View 32 v70,2013-06-01 18:20:00,
2013-06-01 13:25:00,55.7,53.1,29.99,WNW,292,19.0,36.0,91,0.00,,,0.08,Weather View 32 v70,2013-06-01 18:25:00,
2013-06-01 13:30:00,55.7,52.5,29.98,West,270,17.0,36.0,89,0.00,,,0.08,Weather View 32 v70,2013-06-01 18:30:00,
2013-06-01 13:35:00,55.8,52.6,29.98,NW,315,22.0,36.0,89,0.00,,,0.08,Weather View 32 v70,2013-06-01 18:35:00,
2013-06-01 13:40:00,55.9,53.0,30.00,WNW,292,24.0,36.0,90,0.00,,,0.08,Weather View 32 v70,2013-06-01 18:40:00,
2013-06-01 13:45:00,55.8,53.2,30.00,NW,315,11.0,36.0,91,0.00,,,0.08,Weather View 32 v70,2013-06-01 18:45:00,
2013-06-01 13:50:00,55.6,53.0,30.00,NW,315,24.0,36.0,91,0.00,,,0.08,Weather View 32 v70,2013-06-01 18:50:00,
2013-06-01 13:55:00,55.5,52.3,30.00,WNW,292,21.0,36.0,89,0.00,,,0.08,Weather View 32 v70,2013-06-01 18:55:00,
2013-06-01 14:00:00,55.6,53.0,30.00,West,270,13.0,36.0,91,0.00,,,0.08,Weather View 32 v70,2013-06-01 19:00:00,
2013-06-01 14:05:00,55.4,52.8,30.02,NW,315,26.0,36.0,91,0.00,,,0.08,Weather View 32 v70,2013-06-01 19:05:00,
2013-06-01 14:10:00,55.1,52.5,30.01,West,270,16.0,34.0,91,0.00,,,0.08,Weather View 32 v70,2013-06-01 19:10:00,
2013-06-01 14:15:00,55.1,52.5,30.01,WNW,292,22.0,34.0,91,0.00,,,0.08,Weather View 32 v70,2013-06-01 19:15:00,
2013-06-01 14:20:00,55.1,52.5,30.02,West,270,18.0,34.0,91,0.00,,,0.08,Weather View 32 v70,2013-06-01 19:20:00,
2013-06-01 14:25:00,54.7,52.1,30.02,NW,315,12.0,34.0,91,0.00,,,0.08,Weather View 32 v70,2013-06-01 19:25:00,
2013-06-01 14:30:00,54.9,52.3,30.00,WNW,292,19.0,34.0,91,0.00,,,0.08,Weather View 32 v70,2013-06-01 19:30:00,
2013-06-01 14:35:00,54.7,52.1,30.03,WNW,292,24.0,34.0,91,0.00,,,0.08,Weather View 32 v70,2013-06-01 19:35:00,
2013-06-01 14:40:00,54.9,52.0,30.02,NW,315,24.0,34.0,90,0.00,,,0.08,Weather View 32 v70,2013-06-01 19:40:00,
2013-06-01 14:45:00,54.9,51.7,30.02,West,270,10.0,33.0,89,0.00,,,0.08,Weather View 32 v70,2013-06-01 19:45:00,
2013-06-01 14:50:00,54.9,52.0,30.03,NW,315,19.0,33.0,90,0.00,,,0.08,Weather View 32 v70,2013-06-01 19:50:00,
2013-06-01 14:55:00,54.7,51.5,30.04,NW,315,17.0,33.0,89,0.00,,,0.08,Weather View 32 v70,2013-06-01 19:55:00,
2013-06-01 15:00:00,55.0,52.1,30.04,West,270,11.0,33.0,90,0.00,,,0.08,Weather View 32 v70,2013-06-01 20:00:00,
2013-06-01 15:05:00,54.9,51.4,30.04,NW,315,19.0,33.0,88,0.00,,,0.08,Weather View 32 v70,2013-06-01 20:05:00,
2013-06-01 15:10:00,54.9,51.7,30.03,NW,315,17.0,33.0,89,0.00,,,0.08,Weather View 32 v70,2013-06-01 20:10:00,
2013-06-01 15:15:00,54.7,51.5,30.04,WNW,292,11.0,33.0,89,0.00,,,0.08,Weather View 32 v70,2013-06-01 20:15:00,
2013-06-01 15:20:00,54.8,51.9,30.06,NW,315,21.0,33.0,90,0.00,,,0.08,Weather View 32 v70,2013-06-01 20:20:00,
2013-06-01 15:25:00,54.6,52.0,30.05,West,270,14.0,31.0,91,0.00,,,0.08,Weather View 32 v70,2013-06-01 20:25:00,
2013-06-01 15:30:00,54.6,52.0,30.05,WNW,292,18.0,31.0,91,0.00,,,0.08,Weather View 32 v70,2013-06-01 20:30:00,
2013-06-01 15:35:00,54.5,51.9,30.06,WNW,292,12.0,29.0,91,0.00,,,0.08,Weather View 32 v70,2013-06-01 20:35:00,
2013-06-01 15:40:00,54.3,51.7,30.05,NW,315,12.0,30.0,91,0.00,,,0.08,Weather View 32 v70,2013-06-01 20:40:00,
2013-06-01 15:45:00,54.2,51.6,30.04,NW,315,22.0,30.0,91,0.00,,,0.08,Weather View 32 v70,2013-06-01 20:45:00,
2013-06-01 15:50:00,54.2,51.6,30.05,WNW,292,14.0,30.0,91,0.00,,,0.08,Weather View 32 v70,2013-06-01 20:50:00,
2013-06-01 15:55:00,54.1,51.5,30.06,NW,315,24.0,30.0,91,0.00,,,0.08,Weather View 32 v70,2013-06-01 20:55:00,
2013-06-01 16:00:00,54.2,51.6,30.06,WNW,292,17.0,30.0,91,0.00,,,0.08,Weather View 32 v70,2013-06-01 21:00:00,
2013-06-01 16:05:00,54.3,51.7,30.06,NW,315,19.0,30.0,91,0.00,,,0.08,Weather View 32 v70,2013-06-01 21:05:00,
2013-06-01 16:10:00,54.1,51.5,30.06,SW,225,7.0,31.0,91,0.00,,,0.08,Weather View 32 v70,2013-06-01 21:10:00,
2013-06-01 16:15:00,54.1,51.8,30.06,NW,315,19.0,31.0,92,0.00,,,0.08,Weather View 32 v70,2013-06-01 21:15:00,
2013-06-01 16:20:00,54.1,51.5,30.05,WNW,292,12.0,31.0,91,0.00,,,0.08,Weather View 32 v70,2013-06-01 21:20:00,
2013-06-01 16:25:00,54.2,51.3,30.05,WNW,292,21.0,31.0,90,0.00,,,0.08,Weather View 32 v70,2013-06-01 21:25:00,
2013-06-01 16:30:00,54.3,51.7,30.06,WNW,292,13.0,31.0,91,0.00,,,0.08,Weather View 32 v70,2013-06-01 21:30:00,
2013-06-01 16:35:00,54.7,52.1,30.06,WNW,292,19.0,31.0,91,0.00,,,0.08,Weather View 32 v70,2013-06-01 21:35:00,
2013-06-01 16:40:00,54.5,51.9,30.06,WNW,292,8.0,31.0,91,0.00,,,0.08,Weather View 32 v70,2013-06-01 21:40:00,
2013-06-01 16:45:00,53.9,51.3,30.07,West,270,9.0,31.0,91,0.00,,,0.08,Weather View 32 v70,2013-06-01 21:45:00,
2013-06-01 16:50:00,53.8,52.1,30.07,WNW,292,12.0,31.0,94,0.00,,,0.08,Weather View 32 v70,2013-06-01 21:50:00,
2013-06-01 16:55:00,53.7,51.1,30.07,West,270,4.0,31.0,91,0.00,,,0.08,Weather View 32 v70,2013-06-01 21:55:00,
2013-06-01 17:00:00,53.9,51.3,30.07,NW,315,9.0,31.0,91,0.00,,,0.08,Weather View 32 v70,2013-06-01 22:00:00,
2013-06-01 17:05:00,53.9,51.0,30.08,NW,315,16.0,31.0,90,0.00,,,0.08,Weather View 32 v70,2013-06-01 22:05:00,
2013-06-01 17:10:00,54.3,51.1,30.08,NW,315,14.0,31.0,89,0.00,,,0.08,Weather View 32 v70,2013-06-01 22:10:00,
2013-06-01 17:15:00,54.5,51.6,30.07,West,270,17.0,31.0,90,0.00,,,0.08,Weather View 32 v70,2013-06-01 22:15:00,
2013-06-01 17:20:00,54.9,51.4,30.08,NW,315,16.0,31.0,88,0.00,,,0.08,Weather View 32 v70,2013-06-01 22:20:00,
2013-06-01 17:25:00,54.7,51.5,30.08,West,270,16.0,31.0,89,0.00,,,0.08,Weather View 32 v70,2013-06-01 22:25:00,
2013-06-01 17:30:00,54.6,51.7,30.07,WNW,292,13.0,31.0,90,0.00,,,0.08,Weather View 32 v70,2013-06-01 22:30:00,
2013-06-01 17:35:00,54.6,51.4,30.08,NW,315,15.0,31.0,89,0.00,,,0.08,Weather View 32 v70,2013-06-01 22:35:00,
2013-06-01 17:40:00,54.4,51.2,30.07,NW,315,18.0,33.0,89,0.00,,,0.08,Weather View 32 v70,2013-06-01 22:40:00,
2013-06-01 17:45:00,54.5,51.3,30.08,WNW,292,14.0,33.0,89,0.00,,,0.08,Weather View 32 v70,2013-06-01 22:45:00,
2013-06-01 17:50:00,54.4,50.9,30.08,NW,315,23.0,33.0,88,0.00,,,0.08,Weather View 32 v70,2013-06-01 22:50:00,
2013-06-01 17:55:00,54.5,51.3,30.09,NW,315,16.0,33.0,89,0.00,,,0.08,Weather View 32 v70,2013-06-01 22:55:00,
2013-06-01 18:00:00,54.7,51.2,30.08,WNW,292,17.0,33.0,88,0.00,,,0.08,Weather View 32 v70,2013-06-01 23:00:00,
2013-06-01 18:05:00,54.6,51.1,30.08,NW,315,21.0,33.0,88,0.00,,,0.08,Weather View 32 v70,2013-06-01 23:05:00,
2013-06-01 18:10:00,54.6,51.7,30.08,West,270,12.0,33.0,90,0.00,,,0.08,Weather View 32 v70,2013-06-01 23:10:00,
2013-06-01 18:15:00,54.7,50.9,30.08,NW,315,21.0,33.0,87,0.00,,,0.08,Weather View 32 v70,2013-06-01 23:15:00,
2013-06-01 18:20:00,54.7,51.2,30.09,NW,315,16.0,33.0,88,0.00,,,0.08,Weather View 32 v70,2013-06-01 23:20:00,
2013-06-01 18:25:00,54.8,51.0,30.09,SW,225,17.0,33.0,87,0.00,,,0.08,Weather View 32 v70,2013-06-01 23:25:00,
2013-06-01 18:30:00,54.8,50.7,30.08,NW,315,22.0,33.0,86,0.00,,,0.08,Weather View 32 v70,2013-06-01 23:30:00,
2013-06-01 18:35:00,54.7,50.9,30.10,NW,315,9.0,33.0,87,0.00,,,0.08,Weather View 32 v70,2013-06-01 23:35:00,
2013-06-01 18:40:00,54.5,50.7,30.08,West,270,9.0,33.0,87,0.00,,,0.08,Weather View 32 v70,2013-06-01 23:40:00,
2013-06-01 18:45:00,54.5,51.0,30.09,WNW,292,15.0,33.0,88,0.00,,,0.08,Weather View 32 v70,2013-06-01 23:45:00,
2013-06-01 18:50:00,54.5,50.4,30.10,NW,315,16.0,33.0,86,0.00,,,0.08,Weather View 32 v70,2013-06-01 23:50:00,
2013-06-01 18:55:00,54.6,51.4,30.10,WNW,292,14.0,33.0,89,0.00,,,0.08,Weather View 32 v70,2013-06-01 23:55:00,
2013-06-01 19:00:00,54.4,50.3,30.09,West,270,20.0,33.0,86,0.00,,,0.08,Weather View 32 v70,2013-06-02 00:00:00,
2013-06-01 19:05:00,54.3,51.1,30.10,WNW,292,16.0,33.0,89,0.00,,,0.08,Weather View 32 v70,2013-06-02 00:05:00,
2013-06-01 19:10:00,54.4,51.5,30.10,West,270,7.0,33.0,90,0.00,,,0.08,Weather View 32 v70,2013-06-02 00:10:00,
2013-06-01 19:15:00,54.4,50.6,30.10,NW,315,20.0,33.0,87,0.00,,,0.08,Weather View 32 v70,2013-06-02 00:15:00,
2013-06-01 19:20:00,54.6,51.4,30.10,NNW,337,15.0,33.0,89,0.00,,,0.08,Weather View 32 v70,2013-06-02 00:20:00,
2013-06-01 19:25:00,54.6,50.8,30.10,NW,315,19.0,33.0,87,0.00,,,0.08,Weather View 32 v70,2013-06-02 00:25:00,
2013-06-01 19:30:00,54.7,51.2,30.11,NW,315,16.0,33.0,88,0.00,,,0.08,Weather View 32 v70,2013-06-02 00:30:00,
2013-06-01 19:35:00,54.6,51.1,30.12,WNW,292,23.0,29.0,88,0.00,,,0.08,Weather View 32 v70,2013-06-02 00:35:00,
2013-06-01 19:40:00,54.2,50.7,30.12,NW,315,19.0,29.0,88,0.00,,,0.08,Weather View 32 v70,2013-06-02 00:40:00,
2013-06-01 19:45:00,54.1,51.2,30.12,NW,315,16.0,29.0,90,0.00,,,0.08,Weather View 32 v70,2013-06-02 00:45:00,
2013-06-01 19:50:00,54.0,51.1,30.12,NW,315,14.0,27.0,90,0.00,,,0.08,Weather View 32 v70,2013-06-02 00:50:00,
2013-06-01 19:55:00,54.2,51.0,30.12,WNW,292,7.0,27.0,89,0.00,,,0.08,Weather View 32 v70,2013-06-02 00:55:00,
2013-06-01 20:00:00,54.4,51.2,30.13,West,270,5.0,27.0,89,0.00,,,0.08,Weather View 32 v70,2013-06-02 01:00:00,
2013-06-01 20:05:00,54.6,51.1,30.12,West,270,10.0,27.0,88,0.00,,,0.08,Weather View 32 v70,2013-06-02 01:05:00,
2013-06-01 20:10:00,54.7,51.2,30.13,NW,315,17.0,27.0,88,0.00,,,0.08,Weather View 32 v70,2013-06-02 01:10:00,
2013-06-01 20:15:00,54.7,50.9,30.13,NW,315,15.0,27.0,87,0.00,,,0.08,Weather View 32 v70,2013-06-02 01:15:00,
2013-06-01 20:20:00,54.7,50.9,30.13,NW,315,15.0,27.0,87,0.00,,,0.08,Weather View 32 v70,2013-06-02 01:20:00,
2013-06-01 20:25:00,54.9,50.8,30.14,West,270,10.0,27.0,86,0.00,,,0.08,Weather View 32 v70,2013-06-02 01:25:00,
2013-06-01 20:30:00,54.9,51.1,30.14,NW,315,5.0,27.0,87,0.00,,,0.08,Weather View 32 v70,2013-06-02 01:30:00,
2013-06-01 20:35:00,54.9,51.7,30.14,NW,315,10.0,27.0,89,0.00,,,0.08,Weather View 32 v70,2013-06-02 01:35:00,
2013-06-01 20:40:00,54.6,51.7,30.14,NW,315,17.0,27.0,90,0.00,,,0.08,Weather View 32 v70,2013-06-02 01:40:00,
2013-06-01 20:45:00,53.5,51.8,30.14,NW,315,9.0,26.0,94,0.00,,,0.08,Weather View 32 v70,2013-06-02 01:45:00,
2013-06-01 20:50:00,53.2,51.8,30.14,NW,315,12.0,25.0,95,0.00,,,0.08,Weather View 32 v70,2013-06-02 01:50:00,
2013-06-01 20:55:00,53.3,51.3,30.14,WNW,292,4.0,25.0,93,0.00,,,0.08,Weather View 32 v70,2013-06-02 01:55:00,
2013-06-01 21:00:00,53.5,51.8,30.14,NW,315,18.0,25.0,94,0.00,,,0.08,Weather View 32 v70,2013-06-02 02:00:00,
2013-06-01 21:05:00,53.7,51.4,30.15,NW,315,9.0,25.0,92,0.00,,,0.08,Weather View 32 v70,2013-06-02 02:05:00,
2013-06-01 21:10:00,53.8,51.5,30.16,WNW,292,11.0,25.0,92,0.00,,,0.08,Weather View 32 v70,2013-06-02 02:10:00,
2013-06-01 21:15:00,53.4,51.7,30.15,West,270,7.0,25.0,94,0.00,,,0.08,Weather View 32 v70,2013-06-02 02:15:00,
2013-06-01 21:20:00,52.9,51.8,30.16,WNW,292,13.0,25.0,96,0.00,,,0.08,Weather View 32 v70,2013-06-02 02:20:00,
2013-06-01 21:25:00,52.5,51.7,30.16,NW,315,9.0,25.0,97,0.00,,,0.08,Weather View 32 v70,2013-06-02 02:25:00,
2013-06-01 21:30:00,52.5,51.7,30.16,NW,315,15.0,25.0,97,0.00,,,0.08,Weather View 32 v70,2013-06-02 02:30:00,
2013-06-01 21:35:00,52.7,51.9,30.16,NW,315,8.0,25.0,97,0.00,,,0.08,Weather View 32 v70,2013-06-02 02:35:00,
2013-06-01 21:40:00,52.5,51.7,30.16,NW,315,17.0,24.0,97,0.00,,,0.08,Weather View 32 v70,2013-06-02 02:40:00,
2013-06-01 21:45:00,52.5,51.7,30.16,NW,315,8.0,22.0,97,0.00,,,0.08,Weather View 32 v70,2013-06-02 02:45:00,
2013-06-01 21:50:00,52.5,51.4,30.16,NW,315,12.0,22.0,96,0.00,,,0.08,Weather View 32 v70,2013-06-02 02:50:00,
2013-06-01 21:55:00,52.4,51.0,30.17,NW,315,9.0,22.0,95,0.00,,,0.08,Weather View 32 v70,2013-06-02 02:55:00,
2013-06-01 22:00:00,52.5,51.1,30.17,NW,315,7.0,22.0,95,0.00,,,0.08,Weather View 32 v70,2013-06-02 03:00:00,
2013-06-01 22:05:00,52.5,51.1,30.18,NW,315,7.0,22.0,95,0.00,,,0.08,Weather View 32 v70,2013-06-02 03:05:00,
2013-06-01 22:11:00,52.6,50.6,30.18,NW,315,4.0,22.0,93,0.00,,,0.08,Weather View 32 v70,2013-06-02 03:11:00,
2013-06-01 22:16:00,52.8,50.8,30.18,NW,315,9.0,22.0,93,0.00,,,0.08,Weather View 32 v70,2013-06-02 03:16:00,
2013-06-01 22:21:00,53.0,51.6,30.18,NW,315,11.0,22.0,95,0.00,,,0.08,Weather View 32 v70,2013-06-02 03:21:00,
2013-06-01 22:26:00,52.8,51.1,30.19,NNW,337,7.0,22.0,94,0.00,,,0.08,Weather View 32 v70,2013-06-02 03:26:00,
2013-06-01 22:31:00,52.6,50.9,30.19,NW,315,11.0,20.0,94,0.00,,,0.08,Weather View 32 v70,2013-06-02 03:31:00,
2013-06-01 22:36:00,52.5,50.5,30.19,NW,315,6.0,19.0,93,0.00,,,0.08,Weather View 32 v70,2013-06-02 03:36:00,
2013-06-01 22:41:00,52.3,50.3,30.20,NW,315,8.0,19.0,93,0.00,,,0.08,Weather View 32 v70,2013-06-02 03:41:00,
2013-06-01 22:46:00,52.4,50.4,30.20,NW,315,8.0,19.0,93,0.00,,,0.08,Weather View 32 v70,2013-06-02 03:46:00,
2013-06-01 22:51:00,52.5,50.5,30.20,NW,315,3.0,19.0,93,0.00,,,0.08,Weather View 32 v70,2013-06-02 03:51:00,
2013-06-01 22:56:00,52.6,50.3,30.20,NW,315,6.0,19.0,92,0.00,,,0.08,Weather View 32 v70,2013-06-02 03:56:00,
2013-06-01 23:01:00,52.5,50.5,30.20,NW,315,3.0,19.0,93,0.00,,,0.08,Weather View 32 v70,2013-06-02 04:01:00,
2013-06-01 23:06:00,52.4,50.4,30.20,NNW,337,6.0,19.0,93,-0.06,,,0.08,Weather View 32 v70,2013-06-02 04:06:00,
2013-06-01 23:11:00,52.3,50.0,30.20,WSW,247,1.0,19.0,92,0.00,,,0.08,Weather View 32 v70,2013-06-02 04:11:00,
2013-06-01 23:16:00,52.2,49.9,30.20,NW,315,6.0,19.0,92,0.00,,,0.08,Weather View 32 v70,2013-06-02 04:16:00,
2013-06-01 23:21:00,52.1,49.5,30.20,NW,315,5.0,18.0,91,0.00,,,0.08,Weather View 32 v70,2013-06-02 04:21:00,
2013-06-01 23:26:00,51.8,49.5,30.20,NW,315,11.0,19.0,92,0.00,,,0.08,Weather View 32 v70,2013-06-02 04:26:00,
2013-06-01 23:31:00,51.5,49.5,30.20,NW,315,8.0,19.0,93,0.00,,,0.08,Weather View 32 v70,2013-06-02 04:31:00,
2013-06-01 23:36:00,51.4,49.4,30.19,NW,315,8.0,19.0,93,0.00,,,0.08,Weather View 32 v70,2013-06-02 04:36:00,
2013-06-01 23:41:00,51.3,49.6,30.19,NW,315,8.0,19.0,94,0.00,,,0.08,Weather View 32 v70,2013-06-02 04:41:00,
2013-06-01 23:46:00,51.3,49.9,30.20,NW,315,4.0,19.0,95,0.00,,,0.08,Weather View 32 v70,2013-06-02 04:46:00,
2013-06-01 23:51:00,51.4,49.7,30.20,NW,315,7.0,19.0,94,0.00,,,0.08,Weather View 32 v70,2013-06-02 04:51:00,
2013-06-01 23:56:00,51.7,50.0,30.20,NW,315,8.0,19.0,94,0.00,,,0.08,Weather View 32 v70,2013-06-02 04:56:00,